This is the latest recevied weather packets stored in our database for station/object K4GSL. If no packets are shown the sender has not sent any weather packets the latest 10 day(s).
| Time | Temp. | Humidity | Pressure | Rain* | Wind** | Luminosity | Snow |
|---|---|---|---|---|---|---|---|
| 1777850204 | 30.56° C | 42% | 1011.8 hPa | 0 mm | - | 310 W/m² | - |
| 1777849900 | 30.56° C | 43% | 1012 hPa | 0 mm | - | 371 W/m² | - |
| 1777849597 | 30.56° C | 42% | 1011.7 hPa | 0 mm | - | 195 W/m² | - |
| 1777849294 | 30.56° C | 43% | 1011.8 hPa | 0 mm | - | 528 W/m² | - |
| 1777848991 | 30.56° C | 42% | 1012.2 hPa | 0 mm | - | 331 W/m² | - |
| 1777848691 | 30.56° C | 42% | 1012.3 hPa | 0 mm | - | 788 W/m² | - |
| 1777848389 | 30° C | 42% | 1012.3 hPa | 0 mm | - | 806 W/m² | - |
| 1777848086 | 30° C | 44% | 1012.4 hPa | 0 mm | - | 768 W/m² | - |
| 1777847784 | 30° C | 45% | 1012.4 hPa | 0 mm | - | 764 W/m² | - |
| 1777847480 | 30° C | 44% | 1012.5 hPa | 0 mm | - | 791 W/m² | - |
| 1777847178 | 29.44° C | 44% | 1012.5 hPa | 0 mm | - | 806 W/m² | - |
| 1777846875 | 29.44° C | 44% | 1012.6 hPa | 0 mm | - | 809 W/m² | - |
| 1777846574 | 28.89° C | 48% | 1012.6 hPa | 0 mm | - | 803 W/m² | - |
| 1777846271 | 28.89° C | 48% | 1012.8 hPa | 0 mm | - | 795 W/m² | - |
| 1777845967 | 28.89° C | 48% | 1012.8 hPa | 0 mm | - | 786 W/m² | - |
| 1777845664 | 28.89° C | 47% | 1012.9 hPa | 0 mm | - | 803 W/m² | - |
| 1777845361 | 28.33° C | 47% | 1013 hPa | 0 mm | - | 780 W/m² | - |
| 1777845058 | 28.33° C | 49% | 1013.2 hPa | 0 mm | - | 530 W/m² | - |
| 1777844756 | 28.33° C | 50% | 1013 hPa | 0 mm | - | 779 W/m² | - |
| 1777844452 | 28.33° C | 49% | 1013.2 hPa | 0 mm | - | 726 W/m² | - |
| 1777844151 | 28.89° C | 50% | 1013 hPa | 0 mm | - | 425 W/m² | - |
| 1777843847 | 28.33° C | 50% | 1013.1 hPa | 0 mm | - | 717 W/m² | - |
| 1777843544 | 28.89° C | 48% | 1013.2 hPa | 0 mm | - | 789 W/m² | - |
| 1777843242 | 27.78° C | 52% | 1013.2 hPa | 0 mm | - | 760 W/m² | - |
| 1777842939 | 28.33° C | 49% | 1013.2 hPa | 0 mm | - | 766 W/m² | - |
* Rain latest hour (hover to see other rain measurements)
** Current wind speed in m/s (hover to see current wind gust speed)